Time;durP1;ratioP1;P1;durP2;ratioP2;P2;SDS_P1;SDS_P2;PMS_P1;PMS_P2;Temp;Humidity;BMP_temperature;BMP_pressure;BME280_temperature;BME280_humidity;BME280_pressure;Samples;Min_cycle;Max_cycle;Signal;HPM_P1;HPM_P2
2023/06/11 00:02:08;;;;;;;8.73;6.00;;;19.10;99.90;;;;;;7369077;19;20761;-87
2023/06/11 00:04:37;;;;;;;9.73;6.68;;;19.10;99.90;;;;;;7364975;19;20059;-88
2023/06/11 00:07:05;;;;;;;12.55;6.90;;;19.20;99.90;;;;;;7362863;19;20026;-88
2023/06/11 00:09:32;;;;;;;17.15;15.27;;;19.20;99.90;;;;;;7365807;19;20026;-86
2023/06/11 00:12:05;;;;;;;13.00;8.38;;;19.30;99.90;;;;;;7370434;19;20032;-85
2023/06/11 00:14:31;;;;;;;10.10;7.13;;;19.30;99.90;;;;;;7366828;19;20022;-87
2023/06/11 00:16:58;;;;;;;10.05;6.65;;;19.40;99.90;;;;;;7365270;19;20022;-85
2023/06/11 00:19:28;;;;;;;10.90;8.00;;;19.40;99.90;;;;;;7366183;19;20511;-86
2023/06/11 00:21:56;;;;;;;7.65;6.85;;;19.40;99.90;;;;;;7363254;19;20110;-87
2023/06/11 00:24:23;;;;;;;10.73;9.60;;;19.50;99.90;;;;;;7363667;19;20031;-86
2023/06/11 00:26:51;;;;;;;8.82;7.47;;;19.50;99.90;;;;;;7355373;19;20282;-86
2023/06/11 00:29:19;;;;;;;10.63;9.43;;;19.60;99.90;;;;;;7369390;19;20023;-87
2023/06/11 00:31:45;;;;;;;10.05;7.90;;;19.60;99.90;;;;;;7361709;19;20041;-86
2023/06/11 00:34:12;;;;;;;9.32;7.00;;;19.60;99.90;;;;;;7360128;19;20040;-87
2023/06/11 00:36:40;;;;;;;10.52;7.53;;;19.60;99.90;;;;;;7362466;19;20022;-87
2023/06/11 00:39:06;;;;;;;13.35;8.05;;;19.70;99.90;;;;;;7356716;19;20118;-86
2023/06/11 00:41:33;;;;;;;8.55;7.55;;;19.70;99.90;;;;;;7363531;19;20033;-86
2023/06/11 00:44:21;;;;;;;10.43;8.73;;;19.70;99.90;;;;;;7362355;19;20029;-86
2023/06/11 00:46:52;;;;;;;9.73;7.82;;;19.70;99.90;;;;;;7363681;19;20014;-87
2023/06/11 00:49:22;;;;;;;8.75;7.35;;;19.60;99.90;;;;;;7365371;19;20019;-86
2023/06/11 00:51:48;;;;;;;10.68;9.05;;;19.70;99.90;;;;;;7366042;19;20118;-86
2023/06/11 00:54:16;;;;;;;9.90;7.55;;;19.70;99.90;;;;;;7361440;19;20018;-86
2023/06/11 00:56:56;;;;;;;12.05;8.75;;;19.70;99.90;;;;;;7361208;19;20367;-87
2023/06/11 00:59:40;;;;;;;9.88;7.32;;;19.60;99.90;;;;;;7361527;19;20018;-86
2023/06/11 01:02:16;;;;;;;15.95;14.43;;;19.60;99.90;;;;;;7367690;19;20469;-87
2023/06/11 01:04:45;;;;;;;18.38;15.85;;;19.70;99.90;;;;;;7363593;19;20473;-87
2023/06/11 01:07:17;;;;;;;8.70;7.75;;;19.60;99.90;;;;;;7365148;19;20027;-87
2023/06/11 01:09:45;;;;;;;9.50;7.63;;;19.60;99.90;;;;;;7365167;19;20021;-87
2023/06/11 01:12:12;;;;;;;10.82;7.78;;;19.60;99.90;;;;;;7364961;19;20014;-87
2023/06/11 01:14:42;;;;;;;10.57;7.18;;;19.50;99.90;;;;;;7361508;19;20019;-87
2023/06/11 01:17:18;;;;;;;8.52;7.55;;;19.50;99.90;;;;;;7365324;19;20022;-87
2023/06/11 01:20:03;;;;;;;7.97;7.20;;;19.50;99.90;;;;;;7364245;19;20031;-87
2023/06/11 01:23:17;;;;;;;8.45;7.63;;;19.50;99.90;;;;;;7364161;19;20379;-86
2023/06/11 01:26:12;;;;;;;10.27;7.35;;;19.40;99.90;;;;;;7364154;19;20721;-88
2023/06/11 01:28:41;;;;;;;8.57;7.70;;;19.40;99.90;;;;;;7362601;19;20029;-86
2023/06/11 01:31:18;;;;;;;10.93;9.68;;;19.40;99.90;;;;;;7364872;19;20014;-87
2023/06/11 01:33:46;;;;;;;9.20;7.95;;;19.40;99.90;;;;;;7367526;19;20022;-87
2023/06/11 01:36:36;;;;;;;10.70;7.97;;;19.40;99.90;;;;;;7371118;19;20394;-87
2023/06/11 01:39:12;;;;;;;8.93;8.05;;;19.30;99.90;;;;;;7374924;19;20824;-87
2023/06/11 01:41:56;;;;;;;8.77;7.38;;;19.30;99.90;;;;;;7370991;19;20011;-87
2023/06/11 01:44:28;;;;;;;9.77;7.65;;;19.20;99.90;;;;;;7375055;19;20025;-86
2023/06/11 01:46:56;;;;;;;8.82;7.68;;;19.20;99.90;;;;;;7370165;19;20015;-86
2023/06/11 01:49:25;;;;;;;9.60;7.95;;;19.20;99.90;;;;;;7369699;19;20031;-86
2023/06/11 01:51:51;;;;;;;9.63;7.60;;;19.20;99.90;;;;;;7369786;19;20078;-87
2023/06/11 01:54:18;;;;;;;10.73;8.02;;;19.10;99.90;;;;;;7368572;19;20570;-86
2023/06/11 01:56:44;;;;;;;11.52;8.25;;;19.10;99.90;;;;;;7367278;19;20018;-86
2023/06/11 01:59:23;;;;;;;8.68;7.80;;;19.10;99.90;;;;;;7362491;19;20025;-87
2023/06/11 02:01:53;;;;;;;9.52;7.93;;;19.00;99.90;;;;;;7364305;19;20022;-88
2023/06/11 02:04:23;;;;;;;9.05;8.05;;;19.00;99.90;;;;;;7374854;19;20023;-85
2023/06/11 02:06:50;;;;;;;9.43;7.70;;;19.00;99.90;;;;;;7366351;19;20027;-87
2023/06/11 02:09:17;;;;;;;8.90;8.05;;;19.00;99.90;;;;;;7370124;19;20026;-85
2023/06/11 02:11:44;;;;;;;9.20;8.20;;;18.90;99.90;;;;;;7364650;19;20053;-87
2023/06/11 02:14:10;;;;;;;22.00;8.85;;;19.00;99.90;;;;;;7368874;19;20026;-85
2023/06/11 02:16:51;;;;;;;8.98;8.07;;;18.90;99.90;;;;;;7369674;19;20458;-87
2023/06/11 02:19:18;;;;;;;11.50;8.80;;;18.90;99.90;;;;;;7369371;19;20069;-86
2023/06/11 02:21:46;;;;;;;11.07;9.50;;;18.80;99.90;;;;;;7369665;19;20403;-86
2023/06/11 02:24:15;;;;;;;10.73;7.78;;;18.80;99.90;;;;;;7366771;19;20025;-87
2023/06/11 02:26:41;;;;;;;10.57;8.65;;;18.70;99.90;;;;;;7364201;19;20390;-87
2023/06/11 02:29:08;;;;;;;11.95;10.75;;;18.70;99.90;;;;;;7365503;19;20090;-88
2023/06/11 02:31:34;;;;;;;11.48;8.43;;;18.70;99.90;;;;;;7370010;19;20375;-88
2023/06/11 02:34:01;;;;;;;12.45;10.93;;;18.70;99.90;;;;;;7365739;19;20022;-86
2023/06/11 02:36:37;;;;;;;9.30;8.18;;;18.60;99.90;;;;;;7367136;19;20026;-86
2023/06/11 02:39:03;;;;;;;11.27;9.07;;;18.60;99.90;;;;;;7361297;19;20061;-86
2023/06/11 02:41:30;;;;;;;10.27;9.27;;;18.60;99.90;;;;;;7363125;19;20018;-86
2023/06/11 02:43:56;;;;;;;11.70;9.73;;;18.60;99.90;;;;;;7367761;19;20015;-86
2023/06/11 02:46:40;;;;;;;9.63;8.63;;;18.50;99.90;;;;;;7368885;19;20735;-86
2023/06/11 02:49:09;;;;;;;9.93;8.93;;;18.40;99.90;;;;;;7367996;19;20513;-86
2023/06/11 02:51:35;;;;;;;12.55;10.35;;;18.40;99.90;;;;;;7368891;19;20018;-86
2023/06/11 02:54:15;;;;;;;10.27;9.25;;;18.40;99.90;;;;;;7367311;19;20612;-86
2023/06/11 02:56:49;;;;;;;10.35;9.23;;;18.40;99.90;;;;;;7370093;19;20033;-86
2023/06/11 02:59:19;;;;;;;11.32;10.07;;;18.30;99.90;;;;;;7371618;19;20026;-88
2023/06/11 03:01:45;;;;;;;12.70;9.32;;;18.30;99.90;;;;;;7371335;19;20018;-88
2023/06/11 03:04:18;;;;;;;9.88;8.88;;;18.20;99.90;;;;;;7367264;19;20019;-88
2023/06/11 03:06:44;;;;;;;9.95;9.00;;;18.20;99.90;;;;;;7368720;19;20010;-87
2023/06/11 03:09:11;;;;;;;10.32;9.23;;;18.10;99.90;;;;;;7359513;19;20470;-87
2023/06/11 03:11:37;;;;;;;10.10;9.10;;;18.10;99.90;;;;;;7358663;19;20019;-87
2023/06/11 03:14:04;;;;;;;14.25;11.02;;;18.10;99.90;;;;;;7361951;19;20026;-87
2023/06/11 03:16:31;;;;;;;11.30;10.18;;;18.00;99.90;;;;;;7361468;19;20022;-87
2023/06/11 03:19:05;;;;;;;11.38;10.27;;;18.00;99.90;;;;;;7358784;19;20022;-86
2023/06/11 03:21:44;;;;;;;10.93;9.68;;;17.90;99.90;;;;;;7359173;19;20018;-85
2023/06/11 03:24:12;;;;;;;10.68;9.57;;;17.80;99.90;;;;;;7359503;19;20029;-87
2023/06/11 03:26:38;;;;;;;12.23;10.02;;;17.80;99.90;;;;;;7357680;19;20022;-87
2023/06/11 03:29:05;;;;;;;10.88;9.90;;;17.70;99.90;;;;;;7363320;19;20609;-86
2023/06/11 03:31:40;;;;;;;11.50;10.30;;;17.70;99.90;;;;;;7357026;19;20025;-86
2023/06/11 03:34:07;;;;;;;12.10;10.63;;;17.70;99.90;;;;;;7364839;19;20029;-86
2023/06/11 03:36:53;;;;;;;10.88;9.77;;;17.60;99.90;;;;;;7359285;19;20053;-86
2023/06/11 03:39:23;;;;;;;13.88;10.45;;;17.60;99.90;;;;;;7362573;19;20026;-86
2023/06/11 03:41:52;;;;;;;13.43;11.63;;;17.60;99.90;;;;;;7357074;19;20037;-86
2023/06/11 03:44:32;;;;;;;13.52;11.57;;;17.60;99.90;;;;;;7360229;19;20033;-86
2023/06/11 03:47:01;;;;;;;11.35;10.20;;;17.60;99.90;;;;;;7359731;19;20244;-86
2023/06/11 03:49:50;;;;;;;10.88;9.88;;;17.60;99.90;;;;;;7357743;19;20025;-86
2023/06/11 03:52:18;;;;;;;13.32;11.60;;;17.60;99.90;;;;;;7356308;19;20107;-87
2023/06/11 03:54:45;;;;;;;11.68;10.57;;;17.60;99.90;;;;;;7358970;19;20018;-87
2023/06/11 03:57:12;;;;;;;11.40;10.25;;;17.60;99.90;;;;;;7357134;19;20024;-88
2023/06/11 03:59:39;;;;;;;12.32;11.13;;;17.60;99.90;;;;;;7356712;19;20023;-87
2023/06/11 04:02:06;;;;;;;11.45;10.43;;;17.60;99.90;;;;;;7355697;19;20775;-86
2023/06/11 04:04:32;;;;;;;12.88;11.00;;;17.60;99.90;;;;;;7354009;19;20033;-87
2023/06/11 04:07:00;;;;;;;12.10;10.90;;;17.70;99.90;;;;;;7355991;19;20498;-87
2023/06/11 04:09:26;;;;;;;12.50;11.23;;;17.70;99.90;;;;;;7356328;19;20061;-86
2023/06/11 04:11:58;;;;;;;11.80;10.60;;;17.70;99.90;;;;;;7361583;19;20014;-87
2023/06/11 04:14:27;;;;;;;12.10;10.95;;;17.70;99.90;;;;;;7363568;19;20714;-88
2023/06/11 04:16:57;;;;;;;13.82;11.18;;;17.70;99.90;;;;;;7360763;19;20040;-88
2023/06/11 04:19:24;;;;;;;12.93;11.60;;;17.70;99.90;;;;;;7360299;19;20043;-88
2023/06/11 04:21:54;;;;;;;13.30;11.45;;;17.70;99.90;;;;;;7359811;19;20046;-88
2023/06/11 04:24:22;;;;;;;12.98;11.60;;;17.80;99.90;;;;;;7360518;19;20022;-88
2023/06/11 04:27:11;;;;;;;12.23;10.95;;;17.80;99.90;;;;;;7361165;19;20638;-88
2023/06/11 04:29:46;;;;;;;14.95;13.63;;;17.90;99.90;;;;;;7359022;19;20018;-87
2023/06/11 04:32:16;;;;;;;12.68;11.38;;;17.90;99.90;;;;;;7356580;19;20366;-88
2023/06/11 04:34:44;;;;;;;12.95;10.95;;;18.00;99.90;;;;;;7358305;19;20018;-87
2023/06/11 04:37:24;;;;;;;13.55;12.20;;;18.00;99.90;;;;;;7360296;19;20038;-86
2023/06/11 04:39:51;;;;;;;13.77;12.43;;;18.00;99.90;;;;;;7360820;19;20022;-88
2023/06/11 04:42:19;;;;;;;13.07;11.95;;;18.10;99.90;;;;;;7353021;19;20037;-88
2023/06/11 04:44:47;;;;;;;12.40;11.32;;;18.10;99.90;;;;;;7354620;19;20010;-88
2023/06/11 04:47:15;;;;;;;12.70;11.52;;;18.20;99.90;;;;;;7353927;19;20074;-87
2023/06/11 04:49:43;;;;;;;13.55;12.25;;;18.20;99.90;;;;;;7354950;19;20653;-87
2023/06/11 04:52:15;;;;;;;12.85;11.65;;;18.30;99.90;;;;;;7358077;19;20059;-87
2023/06/11 04:54:44;;;;;;;13.02;11.90;;;18.40;99.90;;;;;;7350121;19;20030;-87
2023/06/11 04:57:14;;;;;;;12.85;11.75;;;18.40;99.90;;;;;;7358570;19;20014;-88
2023/06/11 04:59:40;;;;;;;13.70;12.43;;;18.50;99.90;;;;;;7356692;19;20820;-86
2023/06/11 05:02:08;;;;;;;14.32;12.93;;;18.60;99.90;;;;;;7360001;19;20023;-88
2023/06/11 05:04:34;;;;;;;14.85;12.30;;;18.60;99.90;;;;;;7357924;19;20141;-87
2023/06/11 05:07:05;;;;;;;13.47;12.30;;;18.80;99.90;;;;;;7356491;19;20022;-86
2023/06/11 05:09:32;;;;;;;15.80;11.57;;;19.10;99.90;;;;;;7366104;19;20790;-87
2023/06/11 05:11:58;;;;;;;12.85;11.70;;;19.40;99.90;;;;;;7364852;19;20544;-86
2023/06/11 05:14:26;;;;;;;13.35;11.95;;;19.60;99.90;;;;;;7364840;19;20023;-87
2023/06/11 05:16:54;;;;;;;13.90;12.40;;;19.90;99.90;;;;;;7367866;19;20023;-87
2023/06/11 05:19:21;;;;;;;12.23;11.02;;;20.10;99.90;;;;;;7366344;19;20029;-87
2023/06/11 05:21:48;;;;;;;11.85;10.63;;;20.20;99.90;;;;;;7368354;19;20029;-86
2023/06/11 05:24:20;;;;;;;11.93;10.80;;;20.40;99.90;;;;;;7370238;19;20120;-87
2023/06/11 05:26:47;;;;;;;13.98;12.48;;;20.50;99.90;;;;;;7366551;19;20029;-88
2023/06/11 05:29:14;;;;;;;12.95;11.65;;;20.70;99.90;;;;;;7367599;19;20391;-87
2023/06/11 05:31:41;;;;;;;13.27;12.00;;;20.80;99.90;;;;;;7368968;19;20019;-88
2023/06/11 05:34:19;;;;;;;11.93;10.73;;;20.90;99.90;;;;;;7369312;19;20645;-87
2023/06/11 05:36:48;;;;;;;11.05;10.05;;;21.10;99.90;;;;;;7367874;19;20026;-86
2023/06/11 05:39:15;;;;;;;11.70;10.55;;;21.40;99.90;;;;;;7369601;19;20101;-91
2023/06/11 05:41:56;;;;;;;11.32;10.30;;;21.50;99.90;;;;;;7370468;19;20018;-84
2023/06/11 05:44:24;;;;;;;12.30;11.10;;;21.60;99.90;;;;;;7367311;19;20482;-82
2023/06/11 05:46:54;;;;;;;12.77;11.48;;;21.70;99.90;;;;;;7362377;19;20010;-84
2023/06/11 05:49:21;;;;;;;11.63;10.52;;;21.80;99.90;;;;;;7361370;19;20103;-82
2023/06/11 05:51:50;;;;;;;12.65;10.23;;;22.00;99.90;;;;;;7358840;19;20011;-84
2023/06/11 05:54:17;;;;;;;11.30;9.70;;;22.00;99.90;;;;;;7362828;19;20029;-83
2023/06/11 05:56:45;;;;;;;10.88;9.88;;;22.10;99.90;;;;;;7362133;19;20025;-83
2023/06/11 05:59:32;;;;;;;10.70;9.60;;;22.40;99.90;;;;;;7363300;19;20966;-83
2023/06/11 06:02:18;;;;;;;10.68;9.65;;;22.50;99.90;;;;;;7364275;19;20014;-83
2023/06/11 06:05:07;;;;;;;10.70;8.88;;;22.50;99.90;;;;;;7363975;19;20022;-83
2023/06/11 06:07:54;;;;;;;10.35;9.27;;;22.60;99.90;;;;;;7362583;19;20037;-83
2023/06/11 06:10:34;;;;;;;10.80;9.82;;;22.90;99.90;;;;;;7364376;19;20023;-83
2023/06/11 06:13:02;;;;;;;10.55;9.55;;;23.10;99.90;;;;;;7362072;19;20393;-84
2023/06/11 06:15:28;;;;;;;10.15;9.25;;;23.20;99.90;;;;;;7362357;19;20019;-84
2023/06/11 06:17:55;;;;;;;15.15;9.82;;;23.10;99.90;;;;;;7360944;19;20035;-83
2023/06/11 06:20:32;;;;;;;11.68;10.18;;;23.30;99.90;;;;;;7362784;19;20057;-85
2023/06/11 06:22:58;;;;;;;11.30;9.70;;;23.30;99.90;;;;;;7365951;19;20054;-84
2023/06/11 06:25:27;;;;;;;11.10;10.00;;;23.50;99.90;;;;;;7366663;19;20015;-84
2023/06/11 06:28:02;;;;;;;11.35;10.15;;;23.70;99.90;;;;;;7364051;19;20399;-86
2023/06/11 06:30:32;;;;;;;9.85;8.85;;;23.90;99.90;;;;;;7363586;19;20022;-84
2023/06/11 06:33:00;;;;;;;11.90;9.70;;;23.80;99.90;;;;;;7364445;19;20036;-82
2023/06/11 06:35:31;;;;;;;10.70;9.52;;;23.90;99.90;;;;;;7367070;19;20669;-83
2023/06/11 06:38:01;;;;;;;10.90;9.85;;;24.00;99.90;;;;;;7367779;19;20077;-84
2023/06/11 06:40:29;;;;;;;9.93;9.02;;;24.30;99.90;;;;;;7366755;19;20026;-83
2023/06/11 06:42:55;;;;;;;12.73;10.13;;;24.40;99.90;;;;;;7363664;19;20045;-83
2023/06/11 06:45:29;;;;;;;10.18;9.18;;;24.60;99.90;;;;;;7369127;19;20015;-87
2023/06/11 06:47:58;;;;;;;9.95;8.98;;;24.60;99.90;;;;;;7366088;19;20014;-84
2023/06/11 06:50:26;;;;;;;10.93;8.63;;;24.70;99.90;;;;;;7366934;19;20888;-83
2023/06/11 06:53:04;;;;;;;10.27;9.07;;;24.80;99.90;;;;;;7366046;19;20018;-85
2023/06/11 06:55:39;;;;;;;10.23;8.90;;;24.90;99.90;;;;;;7365334;19;20018;-84
2023/06/11 06:58:08;;;;;;;9.68;8.38;;;24.80;99.90;;;;;;7365369;19;20079;-85
2023/06/11 07:00:38;;;;;;;9.60;8.52;;;25.00;99.90;;;;;;7362803;19;20493;-86
2023/06/11 07:03:13;;;;;;;10.43;9.27;;;25.10;99.90;;;;;;7368412;19;20037;-85
2023/06/11 07:05:41;;;;;;;10.23;9.05;;;25.30;99.90;;;;;;7363785;19;20021;-87
2023/06/11 07:08:12;;;;;;;9.65;8.73;;;25.40;99.90;;;;;;7364410;19;20022;-83
2023/06/11 07:10:54;;;;;;;9.15;8.35;;;25.70;99.90;;;;;;7364818;19;20014;-82
2023/06/11 07:13:50;;;;;;;13.00;11.35;;;25.90;99.00;;;;;;7363532;19;20037;-82
2023/06/11 07:16:18;;;;;;;9.80;8.88;;;26.10;98.10;;;;;;7361527;19;20490;-82
2023/06/11 07:18:54;;;;;;;10.02;8.82;;;26.00;97.70;;;;;;7361148;19;20028;-84
2023/06/11 07:21:24;;;;;;;9.43;8.45;;;26.20;96.50;;;;;;7361555;19;20014;-84
2023/06/11 07:23:51;;;;;;;27.17;24.75;;;26.20;96.10;;;;;;7359417;19;20371;-84
2023/06/11 07:26:23;;;;;;;12.88;9.80;;;26.30;95.50;;;;;;7359950;19;20014;-82
2023/06/11 07:28:52;;;;;;;11.35;8.98;;;26.30;94.40;;;;;;7361245;19;20018;-83
2023/06/11 07:31:38;;;;;;;22.20;20.27;;;26.40;95.10;;;;;;7361913;19;20030;-85
2023/06/11 07:34:15;;;;;;;11.38;10.15;;;26.60;94.50;;;;;;7359080;19;20018;-84
2023/06/11 07:36:42;;;;;;;11.13;9.10;;;26.80;93.70;;;;;;7364266;19;20022;-84
2023/06/11 07:39:13;;;;;;;9.23;8.30;;;27.00;93.00;;;;;;7365071;19;20018;-85
2023/06/11 07:41:40;;;;;;;9.18;8.30;;;26.70;92.50;;;;;;7366644;19;20010;-83
2023/06/11 07:44:08;;;;;;;9.00;8.00;;;26.90;92.10;;;;;;7359804;19;20026;-83
2023/06/11 07:46:35;;;;;;;9.55;7.80;;;27.10;91.50;;;;;;7364104;19;20325;-84
2023/06/11 07:49:04;;;;;;;8.43;7.63;;;27.40;91.60;;;;;;7362645;19;20018;-84
2023/06/11 07:51:32;;;;;;;8.60;7.80;;;27.30;90.70;;;;;;7367619;19;20022;-83
2023/06/11 07:54:06;;;;;;;9.23;8.32;;;27.40;89.70;;;;;;7361028;19;20034;-84
2023/06/11 07:56:33;;;;;;;8.80;7.25;;;27.60;89.20;;;;;;7361778;19;20379;-83
2023/06/11 07:59:01;;;;;;;8.07;7.28;;;27.70;87.20;;;;;;7353830;19;20026;-83
2023/06/11 08:01:28;;;;;;;8.73;7.38;;;27.90;85.70;;;;;;7360469;19;20467;-84
2023/06/11 08:03:55;;;;;;;8.75;7.95;;;28.00;84.80;;;;;;7357674;19;20026;-83
2023/06/11 08:06:22;;;;;;;9.02;8.13;;;27.90;83.90;;;;;;7356206;19;20018;-86
2023/06/11 08:08:48;;;;;;;8.60;7.70;;;28.10;82.80;;;;;;7357779;19;20015;-85
2023/06/11 08:11:15;;;;;;;8.40;7.60;;;28.40;81.90;;;;;;7359853;19;20014;-86
2023/06/11 08:13:41;;;;;;;8.35;7.57;;;28.40;79.40;;;;;;7361223;19;20041;-86
2023/06/11 08:16:08;;;;;;;9.50;8.50;;;28.90;79.20;;;;;;7359199;19;20121;-87
2023/06/11 08:18:34;;;;;;;8.27;7.22;;;28.70;77.60;;;;;;7356115;19;20026;-84
2023/06/11 08:21:02;;;;;;;11.10;7.03;;;28.90;76.30;;;;;;7355642;19;20381;-84
2023/06/11 08:23:28;;;;;;;7.88;7.07;;;28.90;75.50;;;;;;7351195;19;20105;-86
2023/06/11 08:25:58;;;;;;;8.27;7.43;;;29.00;74.80;;;;;;7356172;19;20093;-86
2023/06/11 08:28:26;;;;;;;8.13;6.97;;;29.30;74.70;;;;;;7357740;19;20038;-86
2023/06/11 08:30:53;;;;;;;7.63;6.82;;;29.30;73.10;;;;;;7363232;19;20455;-87
2023/06/11 08:33:23;;;;;;;8.38;7.30;;;29.40;71.90;;;;;;7360113;19;20019;-87
2023/06/11 08:35:52;;;;;;;8.07;6.90;;;29.60;71.40;;;;;;7358286;19;20018;-83
2023/06/11 08:38:18;;;;;;;9.13;6.95;;;29.70;69.80;;;;;;7362860;19;20018;-83
2023/06/11 08:40:45;;;;;;;10.30;7.30;;;29.70;69.70;;;;;;7359926;19;20046;-85
2023/06/11 08:43:12;;;;;;;7.78;6.97;;;29.70;70.00;;;;;;7365054;19;20022;-85
2023/06/11 08:45:39;;;;;;;10.38;7.22;;;29.90;67.80;;;;;;7366110;19;20014;-85
2023/06/11 08:48:11;;;;;;;11.65;8.38;;;30.00;66.80;;;;;;7369846;19;20026;-84
2023/06/11 08:50:43;;;;;;;8.43;6.68;;;30.00;67.00;;;;;;7371998;19;20022;-84
2023/06/11 08:53:12;;;;;;;7.38;6.65;;;30.00;65.70;;;;;;7372807;19;20025;-83
2023/06/11 08:55:41;;;;;;;18.42;16.70;;;30.20;65.60;;;;;;7367565;19;20018;-84
2023/06/11 08:58:12;;;;;;;11.15;7.53;;;30.40;65.40;;;;;;7366759;19;20018;-83
2023/06/11 09:00:49;;;;;;;9.32;6.65;;;30.50;63.00;;;;;;7367909;19;20022;-84
2023/06/11 09:03:17;;;;;;;7.80;7.00;;;30.40;63.60;;;;;;7365285;19;20406;-84
2023/06/11 09:05:46;;;;;;;12.27;11.02;;;30.50;63.20;;;;;;7362687;19;20022;-84
2023/06/11 09:08:12;;;;;;;12.98;11.77;;;31.00;63.80;;;;;;7366852;19;20986;-83
2023/06/11 09:10:59;;;;;;;23.23;21.23;;;31.50;62.70;;;;;;7362826;19;20029;-84
2023/06/11 09:13:27;;;;;;;10.48;9.50;;;31.60;59.40;;;;;;7366386;19;20487;-82
2023/06/11 09:15:57;;;;;;;7.10;6.22;;;31.40;58.60;;;;;;7361264;19;20022;-90
2023/06/11 09:18:26;;;;;;;8.38;7.28;;;31.70;58.20;;;;;;7366628;19;20496;-88
2023/06/11 09:21:00;;;;;;;10.43;9.13;;;31.70;57.60;;;;;;7370013;19;20025;-88
2023/06/11 09:23:31;;;;;;;7.22;6.53;;;31.70;58.10;;;;;;7374525;19;20014;-88
2023/06/11 09:25:59;;;;;;;7.60;5.93;;;32.00;56.90;;;;;;7368734;19;20090;-86
2023/06/11 09:28:37;;;;;;;8.98;8.07;;;31.90;56.60;;;;;;7373522;19;20033;-90
2023/06/11 09:31:04;;;;;;;22.98;20.98;;;32.10;55.30;;;;;;7373381;19;20021;-89
2023/06/11 09:33:32;;;;;;;19.20;17.50;;;32.10;55.50;;;;;;7379077;19;20019;-88
2023/06/11 09:35:59;;;;;;;13.18;11.90;;;32.10;54.70;;;;;;7371399;19;20101;-88
2023/06/11 09:38:25;;;;;;;10.75;9.65;;;32.20;56.00;;;;;;7378349;19;20022;-87
2023/06/11 09:40:54;;;;;;;6.68;5.70;;;32.50;54.90;;;;;;7373333;19;20037;-83
2023/06/11 09:43:23;;;;;;;7.63;6.17;;;32.20;53.30;;;;;;7373540;19;20025;-81
2023/06/11 09:45:55;;;;;;;7.07;6.38;;;32.20;53.70;;;;;;7373305;19;20044;-81
2023/06/11 09:48:23;;;;;;;8.73;7.60;;;32.50;53.80;;;;;;7372830;19;20440;-81
2023/06/11 09:50:53;;;;;;;8.40;6.10;;;32.60;53.70;;;;;;7370107;19;20418;-79
2023/06/11 09:53:22;;;;;;;8.85;6.50;;;32.70;53.00;;;;;;7372506;19;20065;-79
2023/06/11 09:55:50;;;;;;;7.63;6.90;;;32.80;52.50;;;;;;7367956;19;20062;-80
2023/06/11 09:58:21;;;;;;;10.20;6.72;;;32.90;52.30;;;;;;7368429;19;20018;-78
2023/06/11 10:00:52;;;;;;;12.52;11.15;;;33.10;51.60;;;;;;7368702;19;20023;-81
2023/06/11 10:03:25;;;;;;;7.45;6.45;;;33.00;52.60;;;;;;7374641;19;20697;-82
2023/06/11 10:05:52;;;;;;;8.32;6.05;;;32.90;51.90;;;;;;7371580;19;20141;-81
2023/06/11 10:08:25;;;;;;;7.32;6.63;;;33.10;51.90;;;;;;7367597;19;20043;-80
2023/06/11 10:10:58;;;;;;;8.68;7.38;;;33.00;51.90;;;;;;7368797;19;20018;-80
2023/06/11 10:13:29;;;;;;;8.35;5.43;;;33.00;50.50;;;;;;7366292;19;20481;-81
2023/06/11 10:16:00;;;;;;;11.98;8.75;;;33.10;50.50;;;;;;7367100;19;20049;-80
2023/06/11 10:18:27;;;;;;;7.28;6.57;;;33.30;50.70;;;;;;7365483;19;20490;-80
2023/06/11 10:21:01;;;;;;;8.00;5.50;;;33.10;50.50;;;;;;7369770;19;20026;-80
2023/06/11 10:23:39;;;;;;;8.38;7.10;;;33.30;49.30;;;;;;7370966;19;20026;-80
2023/06/11 10:26:07;;;;;;;6.53;5.50;;;33.40;48.30;;;;;;7363788;19;20019;-80
2023/06/11 10:28:48;;;;;;;5.68;5.07;;;33.30;48.30;;;;;;7364943;19;20015;-80
2023/06/11 10:31:28;;;;;;;7.88;7.07;;;33.60;48.10;;;;;;7366862;19;20018;-80
2023/06/11 10:34:05;;;;;;;7.35;5.85;;;33.50;46.50;;;;;;7372374;19;20019;-80
2023/06/11 10:36:37;;;;;;;7.10;5.60;;;33.90;47.00;;;;;;7375926;19;20023;-81
2023/06/11 10:39:05;;;;;;;6.07;5.47;;;33.80;47.70;;;;;;7366554;19;20018;-80
2023/06/11 10:41:35;;;;;;;6.43;4.97;;;33.70;46.50;;;;;;7371507;19;20018;-81
2023/06/11 10:44:02;;;;;;;;;;;34.30;46.70;;;;;;7369471;19;20497;-81
2023/06/11 10:46:29;;;;;;;25.10;22.92;;;34.40;45.30;;;;;;7365499;19;20370;-78
2023/06/11 10:48:55;;;;;;;16.90;15.25;;;34.50;45.00;;;;;;7372828;19;20334;-78
2023/06/11 10:51:21;;;;;;;29.65;27.10;;;34.40;44.60;;;;;;7371112;19;20018;-79
2023/06/11 10:53:56;;;;;;;12.07;11.02;;;34.60;44.60;;;;;;7368698;19;20041;-79
2023/06/11 10:56:25;;;;;;;13.23;11.98;;;34.90;44.80;;;;;;7367082;19;20022;-81
2023/06/11 10:58:53;;;;;;;5.95;5.05;;;35.00;43.60;;;;;;7371160;19;21209;-82
2023/06/11 11:01:22;;;;;;;7.30;5.17;;;34.90;42.80;;;;;;7364824;19;20487;-80
2023/06/11 11:03:52;;;;;;;6.90;5.22;;;35.20;43.10;;;;;;7372108;19;20031;-79
2023/06/11 11:06:26;;;;;;;7.05;4.88;;;34.90;42.70;;;;;;7365341;19;20490;-79
2023/06/11 11:08:57;;;;;;;8.60;7.72;;;35.20;42.20;;;;;;7378058;19;20480;-80
2023/06/11 11:11:33;;;;;;;6.25;5.28;;;34.90;41.70;;;;;;7374469;19;20014;-77
2023/06/11 11:14:00;;;;;;;7.80;5.10;;;34.70;41.80;;;;;;7365007;19;20022;-80
2023/06/11 11:16:26;;;;;;;6.75;5.63;;;34.50;41.30;;;;;;7363275;19;20537;-77
2023/06/11 11:18:53;;;;;;;8.40;5.95;;;34.50;41.40;;;;;;7362256;19;20019;-83
2023/06/11 11:21:27;;;;;;;28.85;26.38;;;34.30;41.00;;;;;;7361892;19;20368;-84
2023/06/11 11:23:54;;;;;;;6.45;5.20;;;34.20;41.50;;;;;;7364410;19;20015;-84
2023/06/11 11:26:21;;;;;;;8.43;7.18;;;34.40;41.60;;;;;;7363596;19;20883;-84
2023/06/11 11:28:48;;;;;;;7.55;6.85;;;34.50;41.70;;;;;;7367996;19;20019;-86
2023/06/11 11:31:17;;;;;;;6.15;5.63;;;34.80;41.90;;;;;;7365451;19;20018;-85
2023/06/11 11:33:47;;;;;;;10.68;9.63;;;35.00;40.80;;;;;;7368512;19;20684;-84
2023/06/11 11:36:14;;;;;;;7.38;6.70;;;34.90;40.40;;;;;;7366802;19;20022;-84
2023/06/11 11:38:40;;;;;;;6.95;6.20;;;34.90;40.70;;;;;;7366766;19;20078;-85
2023/06/11 11:41:09;;;;;;;6.03;5.43;;;34.80;40.40;;;;;;7363020;19;20010;-84
2023/06/11 11:43:40;;;;;;;8.30;6.43;;;35.20;40.20;;;;;;7365650;19;20050;-84
2023/06/11 11:46:21;;;;;;;7.80;5.90;;;35.30;39.10;;;;;;7364673;19;20022;-88
2023/06/11 11:48:53;;;;;;;6.95;6.05;;;34.90;38.60;;;;;;7368805;19;20011;-87
2023/06/11 11:51:20;;;;;;;6.38;5.20;;;34.70;38.80;;;;;;7366496;19;20141;-87
2023/06/11 11:53:47;;;;;;;6.07;5.47;;;34.70;39.00;;;;;;7365010;19;20356;-87
2023/06/11 11:56:13;;;;;;;12.02;10.77;;;35.00;39.10;;;;;;7363195;19;20014;-86
2023/06/11 11:58:42;;;;;;;11.65;10.48;;;35.10;39.50;;;;;;7363318;19;20779;-83
2023/06/11 12:01:26;;;;;;;14.27;12.90;;;35.10;39.00;;;;;;7364105;19;20045;-87
2023/06/11 12:04:01;;;;;;;7.60;6.85;;;34.70;39.70;;;;;;7365067;19;20094;-86
2023/06/11 12:06:30;;;;;;;8.20;6.53;;;34.90;40.20;;;;;;7365903;19;20018;-87
2023/06/11 12:08:57;;;;;;;8.93;5.93;;;35.00;40.10;;;;;;7362685;19;20006;-85
2023/06/11 12:11:24;;;;;;;6.95;5.70;;;34.70;38.90;;;;;;7366550;19;20037;-85
2023/06/11 12:13:53;;;;;;;7.85;5.30;;;34.80;38.70;;;;;;7362493;19;20018;-85
2023/06/11 12:16:23;;;;;;;5.60;5.00;;;34.70;39.60;;;;;;7364454;19;20693;-85
2023/06/11 12:18:51;;;;;;;8.20;6.97;;;33.90;39.70;;;;;;7362864;19;20018;-82
2023/06/11 12:21:18;;;;;;;6.97;6.28;;;33.70;40.30;;;;;;7366152;19;20035;-84
2023/06/11 12:23:44;;;;;;;6.45;5.78;;;34.00;40.10;;;;;;7367926;19;20014;-89
2023/06/11 12:26:11;;;;;;;7.93;6.78;;;34.20;40.00;;;;;;7377124;19;20038;-93
2023/06/11 12:28:44;;;;;;;24.92;22.48;;;34.10;40.00;;;;;;7391806;19;20145;-96
2023/06/11 12:31:31;;;;;;;12.40;11.25;;;34.40;40.70;;;;;;7379730;19;20011;-89
2023/06/11 12:34:17;;;;;;;8.85;5.65;;;34.00;41.10;;;;;;7377035;19;20021;-91
2023/06/11 12:37:04;;;;;;;7.30;6.07;;;33.70;41.20;;;;;;7369224;19;20011;-88
2023/06/11 12:39:51;;;;;;;9.82;7.18;;;34.10;40.10;;;;;;7378536;19;20014;-91
2023/06/11 12:42:38;;;;;;;9.68;7.63;;;34.40;39.90;;;;;;7387012;19;20021;-89
2023/06/11 12:45:30;;;;;;;9.00;6.82;;;34.60;40.00;;;;;;7394460;19;20006;-93
2023/06/11 12:48:19;;;;;;;7.38;5.75;;;34.90;39.50;;;;;;7396500;19;20007;-90
2023/06/11 12:51:08;;;;;;;10.13;6.68;;;34.90;38.90;;;;;;7390408;19;20423;-96
2023/06/11 12:53:55;;;;;;;8.95;6.63;;;35.10;38.80;;;;;;7370173;19;20045;-85
2023/06/11 12:56:41;;;;;;;6.30;5.32;;;34.90;38.20;;;;;;7369219;19;20007;-87
2023/06/11 12:59:29;;;;;;;8.93;5.63;;;34.60;37.80;;;;;;7365730;19;20010;-83